sensor_id;sensor_type;location;lat;lon;timestamp;P1;durP1;ratioP1;P2;durP2;ratioP2
16826;SDS011;8530;49.540;8.576;2023-04-24T00:00:35;3.10;;;2.73;;
16826;SDS011;8530;49.540;8.576;2023-04-24T00:03:03;3.70;;;2.27;;
16826;SDS011;8530;49.540;8.576;2023-04-24T00:05:30;3.33;;;2.80;;
16826;SDS011;8530;49.540;8.576;2023-04-24T00:07:57;3.67;;;3.00;;
16826;SDS011;8530;49.540;8.576;2023-04-24T00:10:26;3.33;;;2.83;;
16826;SDS011;8530;49.540;8.576;2023-04-24T00:12:53;6.07;;;2.70;;
16826;SDS011;8530;49.540;8.576;2023-04-24T00:15:19;3.53;;;3.10;;
16826;SDS011;8530;49.540;8.576;2023-04-24T00:17:46;2.50;;;2.30;;
16826;SDS011;8530;49.540;8.576;2023-04-24T00:20:13;3.27;;;2.70;;
16826;SDS011;8530;49.540;8.576;2023-04-24T00:22:39;3.73;;;2.77;;
16826;SDS011;8530;49.540;8.576;2023-04-24T00:25:07;3.73;;;2.50;;
16826;SDS011;8530;49.540;8.576;2023-04-24T00:27:35;3.00;;;2.30;;
16826;SDS011;8530;49.540;8.576;2023-04-24T00:30:04;3.10;;;2.50;;
16826;SDS011;8530;49.540;8.576;2023-04-24T00:32:31;2.97;;;2.40;;
16826;SDS011;8530;49.540;8.576;2023-04-24T00:34:58;3.63;;;2.23;;
16826;SDS011;8530;49.540;8.576;2023-04-24T00:37:25;2.13;;;1.93;;
16826;SDS011;8530;49.540;8.576;2023-04-24T00:39:51;3.13;;;2.47;;
16826;SDS011;8530;49.540;8.576;2023-04-24T00:42:18;2.90;;;2.17;;
16826;SDS011;8530;49.540;8.576;2023-04-24T00:44:46;5.20;;;3.07;;
16826;SDS011;8530;49.540;8.576;2023-04-24T00:47:13;5.30;;;2.57;;
16826;SDS011;8530;49.540;8.576;2023-04-24T00:49:40;2.60;;;2.40;;
16826;SDS011;8530;49.540;8.576;2023-04-24T00:52:07;6.30;;;2.37;;
16826;SDS011;8530;49.540;8.576;2023-04-24T00:54:34;5.70;;;2.83;;
16826;SDS011;8530;49.540;8.576;2023-04-24T00:57:01;3.60;;;2.40;;
16826;SDS011;8530;49.540;8.576;2023-04-24T00:59:28;3.60;;;2.90;;
16826;SDS011;8530;49.540;8.576;2023-04-24T01:01:56;4.83;;;4.33;;
16826;SDS011;8530;49.540;8.576;2023-04-24T01:04:23;5.70;;;3.80;;
16826;SDS011;8530;49.540;8.576;2023-04-24T01:06:51;2.87;;;2.40;;
16826;SDS011;8530;49.540;8.576;2023-04-24T01:09:18;3.10;;;2.70;;
16826;SDS011;8530;49.540;8.576;2023-04-24T01:11:47;3.63;;;2.53;;
16826;SDS011;8530;49.540;8.576;2023-04-24T01:14:15;3.50;;;2.40;;
16826;SDS011;8530;49.540;8.576;2023-04-24T01:16:41;6.03;;;2.37;;
16826;SDS011;8530;49.540;8.576;2023-04-24T01:19:09;4.93;;;2.70;;
16826;SDS011;8530;49.540;8.576;2023-04-24T01:21:37;4.63;;;3.20;;
16826;SDS011;8530;49.540;8.576;2023-04-24T01:24:06;2.50;;;2.30;;
16826;SDS011;8530;49.540;8.576;2023-04-24T01:26:33;4.07;;;2.67;;
16826;SDS011;8530;49.540;8.576;2023-04-24T01:29:00;4.13;;;2.30;;
16826;SDS011;8530;49.540;8.576;2023-04-24T01:31:26;29.03;;;2.80;;
16826;SDS011;8530;49.540;8.576;2023-04-24T01:33:54;9.00;;;2.67;;
16826;SDS011;8530;49.540;8.576;2023-04-24T01:36:22;3.00;;;2.60;;
16826;SDS011;8530;49.540;8.576;2023-04-24T01:38:51;3.43;;;2.80;;
16826;SDS011;8530;49.540;8.576;2023-04-24T01:41:19;3.87;;;2.77;;
16826;SDS011;8530;49.540;8.576;2023-04-24T01:43:46;5.80;;;3.20;;
16826;SDS011;8530;49.540;8.576;2023-04-24T01:46:14;4.33;;;2.97;;
16826;SDS011;8530;49.540;8.576;2023-04-24T01:48:41;4.40;;;2.00;;
16826;SDS011;8530;49.540;8.576;2023-04-24T01:51:08;2.73;;;2.40;;
16826;SDS011;8530;49.540;8.576;2023-04-24T01:53:34;3.00;;;2.70;;
16826;SDS011;8530;49.540;8.576;2023-04-24T01:56:01;2.83;;;2.20;;
16826;SDS011;8530;49.540;8.576;2023-04-24T01:58:31;2.50;;;2.30;;
16826;SDS011;8530;49.540;8.576;2023-04-24T02:00:58;3.20;;;2.03;;
16826;SDS011;8530;49.540;8.576;2023-04-24T02:03:25;4.77;;;2.50;;
16826;SDS011;8530;49.540;8.576;2023-04-24T02:05:52;3.17;;;2.40;;
16826;SDS011;8530;49.540;8.576;2023-04-24T02:08:19;4.60;;;2.80;;
16826;SDS011;8530;49.540;8.576;2023-04-24T02:10:45;9.63;;;2.40;;
16826;SDS011;8530;49.540;8.576;2023-04-24T02:13:12;4.70;;;2.27;;
16826;SDS011;8530;49.540;8.576;2023-04-24T02:15:40;5.23;;;2.80;;
16826;SDS011;8530;49.540;8.576;2023-04-24T02:18:07;5.50;;;3.30;;
16826;SDS011;8530;49.540;8.576;2023-04-24T02:20:33;4.77;;;2.20;;
16826;SDS011;8530;49.540;8.576;2023-04-24T02:23:00;5.30;;;2.80;;
16826;SDS011;8530;49.540;8.576;2023-04-24T02:25:27;3.17;;;2.40;;
16826;SDS011;8530;49.540;8.576;2023-04-24T02:27:54;4.67;;;2.40;;
16826;SDS011;8530;49.540;8.576;2023-04-24T02:30:20;6.23;;;3.30;;
16826;SDS011;8530;49.540;8.576;2023-04-24T02:32:49;8.67;;;2.80;;
16826;SDS011;8530;49.540;8.576;2023-04-24T02:35:15;6.90;;;3.37;;
16826;SDS011;8530;49.540;8.576;2023-04-24T02:37:42;4.20;;;2.70;;
16826;SDS011;8530;49.540;8.576;2023-04-24T02:40:09;4.30;;;2.50;;
16826;SDS011;8530;49.540;8.576;2023-04-24T02:42:36;3.60;;;2.07;;
16826;SDS011;8530;49.540;8.576;2023-04-24T02:45:03;4.17;;;2.50;;
16826;SDS011;8530;49.540;8.576;2023-04-24T02:47:30;3.23;;;2.10;;
16826;SDS011;8530;49.540;8.576;2023-04-24T02:49:58;5.27;;;2.60;;
16826;SDS011;8530;49.540;8.576;2023-04-24T02:52:25;4.53;;;2.20;;
16826;SDS011;8530;49.540;8.576;2023-04-24T02:54:51;2.20;;;2.00;;
16826;SDS011;8530;49.540;8.576;2023-04-24T02:57:18;2.80;;;2.03;;
16826;SDS011;8530;49.540;8.576;2023-04-24T03:03:07;3.40;;;2.40;;
16826;SDS011;8530;49.540;8.576;2023-04-24T03:05:36;2.67;;;2.13;;
16826;SDS011;8530;49.540;8.576;2023-04-24T03:08:02;3.20;;;2.77;;
16826;SDS011;8530;49.540;8.576;2023-04-24T03:10:29;4.27;;;2.67;;
16826;SDS011;8530;49.540;8.576;2023-04-24T03:12:57;4.53;;;2.60;;
16826;SDS011;8530;49.540;8.576;2023-04-24T03:15:24;2.57;;;2.37;;
16826;SDS011;8530;49.540;8.576;2023-04-24T03:17:50;3.77;;;2.70;;
16826;SDS011;8530;49.540;8.576;2023-04-24T03:20:17;3.13;;;2.53;;
16826;SDS011;8530;49.540;8.576;2023-04-24T03:22:45;3.30;;;2.80;;
16826;SDS011;8530;49.540;8.576;2023-04-24T03:25:12;2.00;;;1.90;;
16826;SDS011;8530;49.540;8.576;2023-04-24T03:27:38;2.23;;;2.03;;
16826;SDS011;8530;49.540;8.576;2023-04-24T03:30:06;2.90;;;2.30;;
16826;SDS011;8530;49.540;8.576;2023-04-24T03:32:33;2.87;;;2.67;;
16826;SDS011;8530;49.540;8.576;2023-04-24T03:35:00;4.37;;;2.50;;
16826;SDS011;8530;49.540;8.576;2023-04-24T03:37:27;4.30;;;2.50;;
16826;SDS011;8530;49.540;8.576;2023-04-24T03:39:55;3.00;;;2.70;;
16826;SDS011;8530;49.540;8.576;2023-04-24T03:42:22;2.77;;;2.57;;
16826;SDS011;8530;49.540;8.576;2023-04-24T03:44:48;2.67;;;2.30;;
16826;SDS011;8530;49.540;8.576;2023-04-24T03:47:15;2.97;;;2.67;;
16826;SDS011;8530;49.540;8.576;2023-04-24T03:49:41;3.57;;;2.40;;
16826;SDS011;8530;49.540;8.576;2023-04-24T03:52:08;2.90;;;2.40;;
16826;SDS011;8530;49.540;8.576;2023-04-24T03:54:35;3.90;;;2.70;;
16826;SDS011;8530;49.540;8.576;2023-04-24T03:57:03;2.80;;;2.50;;
16826;SDS011;8530;49.540;8.576;2023-04-24T03:59:30;2.80;;;2.20;;
16826;SDS011;8530;49.540;8.576;2023-04-24T04:01:57;3.87;;;2.63;;
16826;SDS011;8530;49.540;8.576;2023-04-24T04:04:23;3.30;;;2.47;;
16826;SDS011;8530;49.540;8.576;2023-04-24T04:06:50;4.60;;;2.30;;
16826;SDS011;8530;49.540;8.576;2023-04-24T04:09:17;2.63;;;2.43;;
16826;SDS011;8530;49.540;8.576;2023-04-24T04:11:43;3.17;;;2.87;;
16826;SDS011;8530;49.540;8.576;2023-04-24T04:14:11;4.30;;;3.27;;
16826;SDS011;8530;49.540;8.576;2023-04-24T04:16:38;4.53;;;3.13;;
16826;SDS011;8530;49.540;8.576;2023-04-24T04:19:05;5.87;;;2.50;;
16826;SDS011;8530;49.540;8.576;2023-04-24T04:21:32;3.17;;;2.87;;
16826;SDS011;8530;49.540;8.576;2023-04-24T04:23:59;3.00;;;2.80;;
16826;SDS011;8530;49.540;8.576;2023-04-24T04:26:25;4.37;;;2.80;;
16826;SDS011;8530;49.540;8.576;2023-04-24T04:28:52;2.90;;;2.70;;
16826;SDS011;8530;49.540;8.576;2023-04-24T04:31:20;10.50;;;3.50;;
16826;SDS011;8530;49.540;8.576;2023-04-24T04:33:48;3.73;;;3.40;;
16826;SDS011;8530;49.540;8.576;2023-04-24T04:36:14;4.57;;;3.50;;
16826;SDS011;8530;49.540;8.576;2023-04-24T04:38:42;4.33;;;3.00;;
16826;SDS011;8530;49.540;8.576;2023-04-24T04:41:10;4.50;;;3.97;;
16826;SDS011;8530;49.540;8.576;2023-04-24T04:43:37;4.00;;;3.37;;
16826;SDS011;8530;49.540;8.576;2023-04-24T04:46:04;4.27;;;3.90;;
16826;SDS011;8530;49.540;8.576;2023-04-24T04:48:34;3.90;;;3.43;;
16826;SDS011;8530;49.540;8.576;2023-04-24T04:51:01;4.60;;;3.77;;
16826;SDS011;8530;49.540;8.576;2023-04-24T04:53:28;3.77;;;3.47;;
16826;SDS011;8530;49.540;8.576;2023-04-24T04:55:55;4.13;;;3.33;;
16826;SDS011;8530;49.540;8.576;2023-04-24T04:58:21;4.27;;;3.53;;
16826;SDS011;8530;49.540;8.576;2023-04-24T05:00:48;4.40;;;3.90;;
16826;SDS011;8530;49.540;8.576;2023-04-24T05:03:15;4.67;;;4.17;;
16826;SDS011;8530;49.540;8.576;2023-04-24T05:05:43;4.97;;;4.00;;
16826;SDS011;8530;49.540;8.576;2023-04-24T05:08:10;7.30;;;4.53;;
16826;SDS011;8530;49.540;8.576;2023-04-24T05:10:36;8.27;;;3.43;;
16826;SDS011;8530;49.540;8.576;2023-04-24T05:13:03;7.17;;;3.67;;
16826;SDS011;8530;49.540;8.576;2023-04-24T05:15:30;4.73;;;3.30;;
16826;SDS011;8530;49.540;8.576;2023-04-24T05:17:56;5.30;;;3.17;;
16826;SDS011;8530;49.540;8.576;2023-04-24T05:20:23;5.07;;;3.77;;
16826;SDS011;8530;49.540;8.576;2023-04-24T05:22:51;5.40;;;3.80;;
16826;SDS011;8530;49.540;8.576;2023-04-24T05:25:18;4.50;;;3.80;;
16826;SDS011;8530;49.540;8.576;2023-04-24T05:27:45;5.77;;;3.93;;
16826;SDS011;8530;49.540;8.576;2023-04-24T05:30:12;5.53;;;3.43;;
16826;SDS011;8530;49.540;8.576;2023-04-24T05:32:40;8.13;;;3.87;;
16826;SDS011;8530;49.540;8.576;2023-04-24T05:35:07;5.77;;;3.90;;
16826;SDS011;8530;49.540;8.576;2023-04-24T05:37:34;4.87;;;3.87;;
16826;SDS011;8530;49.540;8.576;2023-04-24T05:40:03;4.73;;;4.20;;
16826;SDS011;8530;49.540;8.576;2023-04-24T05:42:30;4.73;;;3.57;;
16826;SDS011;8530;49.540;8.576;2023-04-24T05:44:57;3.83;;;3.47;;
16826;SDS011;8530;49.540;8.576;2023-04-24T05:47:24;6.50;;;4.00;;
16826;SDS011;8530;49.540;8.576;2023-04-24T05:49:51;5.10;;;4.23;;
16826;SDS011;8530;49.540;8.576;2023-04-24T05:52:18;5.00;;;3.83;;
16826;SDS011;8530;49.540;8.576;2023-04-24T05:54:44;4.17;;;3.80;;
16826;SDS011;8530;49.540;8.576;2023-04-24T05:57:12;9.57;;;5.27;;
16826;SDS011;8530;49.540;8.576;2023-04-24T05:59:40;5.47;;;4.33;;
16826;SDS011;8530;49.540;8.576;2023-04-24T06:02:06;5.83;;;5.07;;
16826;SDS011;8530;49.540;8.576;2023-04-24T06:04:33;8.80;;;4.57;;
16826;SDS011;8530;49.540;8.576;2023-04-24T06:07:00;5.70;;;5.10;;
16826;SDS011;8530;49.540;8.576;2023-04-24T06:09:27;19.80;;;5.70;;
16826;SDS011;8530;49.540;8.576;2023-04-24T06:11:54;5.47;;;4.43;;
16826;SDS011;8530;49.540;8.576;2023-04-24T06:14:22;4.43;;;4.03;;
16826;SDS011;8530;49.540;8.576;2023-04-24T06:16:49;6.70;;;4.47;;
16826;SDS011;8530;49.540;8.576;2023-04-24T06:19:16;6.07;;;4.47;;
16826;SDS011;8530;49.540;8.576;2023-04-24T06:21:43;5.90;;;3.63;;
16826;SDS011;8530;49.540;8.576;2023-04-24T06:24:09;5.70;;;3.80;;
16826;SDS011;8530;49.540;8.576;2023-04-24T06:26:37;7.20;;;4.70;;
16826;SDS011;8530;49.540;8.576;2023-04-24T06:29:03;6.10;;;3.73;;
16826;SDS011;8530;49.540;8.576;2023-04-24T06:31:31;5.30;;;3.67;;
16826;SDS011;8530;49.540;8.576;2023-04-24T06:34:01;5.70;;;4.30;;
16826;SDS011;8530;49.540;8.576;2023-04-24T06:36:28;6.80;;;4.20;;
16826;SDS011;8530;49.540;8.576;2023-04-24T06:38:55;4.57;;;3.73;;
16826;SDS011;8530;49.540;8.576;2023-04-24T06:41:22;7.27;;;4.03;;
16826;SDS011;8530;49.540;8.576;2023-04-24T06:43:49;5.80;;;4.63;;
16826;SDS011;8530;49.540;8.576;2023-04-24T06:46:15;4.17;;;3.77;;
16826;SDS011;8530;49.540;8.576;2023-04-24T06:48:43;3.93;;;3.57;;
16826;SDS011;8530;49.540;8.576;2023-04-24T06:51:10;5.40;;;4.00;;
16826;SDS011;8530;49.540;8.576;2023-04-24T06:53:37;4.07;;;3.70;;
16826;SDS011;8530;49.540;8.576;2023-04-24T06:56:04;4.00;;;3.60;;
16826;SDS011;8530;49.540;8.576;2023-04-24T06:58:30;4.90;;;2.90;;
16826;SDS011;8530;49.540;8.576;2023-04-24T07:00:57;5.20;;;3.03;;
16826;SDS011;8530;49.540;8.576;2023-04-24T07:03:24;3.60;;;3.23;;
16826;SDS011;8530;49.540;8.576;2023-04-24T07:05:52;4.80;;;3.43;;
16826;SDS011;8530;49.540;8.576;2023-04-24T07:08:19;3.73;;;3.43;;
16826;SDS011;8530;49.540;8.576;2023-04-24T07:10:47;2.97;;;2.67;;
16826;SDS011;8530;49.540;8.576;2023-04-24T07:13:14;3.03;;;2.20;;
16826;SDS011;8530;49.540;8.576;2023-04-24T07:15:41;2.63;;;2.43;;
16826;SDS011;8530;49.540;8.576;2023-04-24T07:18:07;4.00;;;2.87;;
16826;SDS011;8530;49.540;8.576;2023-04-24T07:20:34;2.57;;;2.37;;
16826;SDS011;8530;49.540;8.576;2023-04-24T07:23:02;3.00;;;2.60;;
16826;SDS011;8530;49.540;8.576;2023-04-24T07:25:29;5.30;;;2.17;;
16826;SDS011;8530;49.540;8.576;2023-04-24T07:27:56;2.60;;;2.20;;
16826;SDS011;8530;49.540;8.576;2023-04-24T07:30:23;7.00;;;2.20;;
16826;SDS011;8530;49.540;8.576;2023-04-24T07:32:49;2.40;;;1.60;;
16826;SDS011;8530;49.540;8.576;2023-04-24T07:35:16;2.30;;;1.53;;
16826;SDS011;8530;49.540;8.576;2023-04-24T07:37:43;3.33;;;1.70;;
16826;SDS011;8530;49.540;8.576;2023-04-24T07:40:12;3.77;;;1.77;;
16826;SDS011;8530;49.540;8.576;2023-04-24T07:42:39;1.93;;;1.40;;
16826;SDS011;8530;49.540;8.576;2023-04-24T07:45:06;1.80;;;1.50;;
16826;SDS011;8530;49.540;8.576;2023-04-24T07:47:33;4.30;;;2.30;;
16826;SDS011;8530;49.540;8.576;2023-04-24T07:50:01;6.20;;;1.80;;
16826;SDS011;8530;49.540;8.576;2023-04-24T07:52:28;2.17;;;1.40;;
16826;SDS011;8530;49.540;8.576;2023-04-24T07:54:55;2.23;;;1.40;;
16826;SDS011;8530;49.540;8.576;2023-04-24T07:57:24;1.43;;;1.13;;
16826;SDS011;8530;49.540;8.576;2023-04-24T07:59:51;2.57;;;1.50;;
16826;SDS011;8530;49.540;8.576;2023-04-24T08:02:18;2.60;;;1.40;;
16826;SDS011;8530;49.540;8.576;2023-04-24T08:04:46;1.60;;;1.50;;
16826;SDS011;8530;49.540;8.576;2023-04-24T08:07:13;3.00;;;1.47;;
16826;SDS011;8530;49.540;8.576;2023-04-24T08:09:40;6.97;;;1.70;;
16826;SDS011;8530;49.540;8.576;2023-04-24T08:12:06;3.50;;;1.63;;
16826;SDS011;8530;49.540;8.576;2023-04-24T08:14:34;6.43;;;2.30;;
16826;SDS011;8530;49.540;8.576;2023-04-24T08:17:01;3.67;;;1.90;;
16826;SDS011;8530;49.540;8.576;2023-04-24T08:19:28;2.10;;;1.50;;
16826;SDS011;8530;49.540;8.576;2023-04-24T08:21:55;2.20;;;1.63;;
16826;SDS011;8530;49.540;8.576;2023-04-24T08:24:22;2.77;;;2.10;;
16826;SDS011;8530;49.540;8.576;2023-04-24T08:26:49;3.60;;;2.20;;
16826;SDS011;8530;49.540;8.576;2023-04-24T08:29:16;3.00;;;1.83;;
16826;SDS011;8530;49.540;8.576;2023-04-24T08:31:44;3.77;;;1.80;;
16826;SDS011;8530;49.540;8.576;2023-04-24T08:34:11;2.53;;;2.07;;
16826;SDS011;8530;49.540;8.576;2023-04-24T08:36:38;3.23;;;2.17;;
16826;SDS011;8530;49.540;8.576;2023-04-24T08:39:06;2.60;;;2.20;;
16826;SDS011;8530;49.540;8.576;2023-04-24T08:41:34;4.53;;;2.73;;
16826;SDS011;8530;49.540;8.576;2023-04-24T08:44:01;2.37;;;2.17;;
16826;SDS011;8530;49.540;8.576;2023-04-24T08:46:28;5.10;;;2.97;;
16826;SDS011;8530;49.540;8.576;2023-04-24T08:48:57;8.37;;;2.67;;
16826;SDS011;8530;49.540;8.576;2023-04-24T08:51:25;5.30;;;2.77;;
16826;SDS011;8530;49.540;8.576;2023-04-24T08:53:53;3.90;;;2.80;;
16826;SDS011;8530;49.540;8.576;2023-04-24T08:56:21;3.10;;;2.80;;
16826;SDS011;8530;49.540;8.576;2023-04-24T08:58:49;3.07;;;2.77;;
16826;SDS011;8530;49.540;8.576;2023-04-24T09:01:16;5.63;;;3.23;;
16826;SDS011;8530;49.540;8.576;2023-04-24T09:03:44;4.93;;;3.13;;
16826;SDS011;8530;49.540;8.576;2023-04-24T09:06:13;5.00;;;2.80;;
16826;SDS011;8530;49.540;8.576;2023-04-24T09:08:42;3.60;;;2.90;;
16826;SDS011;8530;49.540;8.576;2023-04-24T09:11:09;4.90;;;3.50;;
16826;SDS011;8530;49.540;8.576;2023-04-24T09:13:37;2.97;;;2.67;;
16826;SDS011;8530;49.540;8.576;2023-04-24T09:16:04;3.50;;;2.90;;
16826;SDS011;8530;49.540;8.576;2023-04-24T09:18:31;3.87;;;3.47;;
16826;SDS011;8530;49.540;8.576;2023-04-24T09:20:59;3.90;;;2.80;;
16826;SDS011;8530;49.540;8.576;2023-04-24T09:23:29;5.60;;;3.10;;
16826;SDS011;8530;49.540;8.576;2023-04-24T09:25:56;4.87;;;3.20;;
16826;SDS011;8530;49.540;8.576;2023-04-24T09:28:25;3.83;;;3.07;;
16826;SDS011;8530;49.540;8.576;2023-04-24T09:31:02;2.60;;;2.40;;
16826;SDS011;8530;49.540;8.576;2023-04-24T09:33:30;4.23;;;2.33;;
16826;SDS011;8530;49.540;8.576;2023-04-24T09:35:57;4.47;;;2.50;;
16826;SDS011;8530;49.540;8.576;2023-04-24T09:38:32;2.90;;;2.40;;
16826;SDS011;8530;49.540;8.576;2023-04-24T09:41:01;3.97;;;2.70;;
16826;SDS011;8530;49.540;8.576;2023-04-24T09:43:29;5.40;;;2.83;;
16826;SDS011;8530;49.540;8.576;2023-04-24T09:45:56;6.00;;;3.37;;
16826;SDS011;8530;49.540;8.576;2023-04-24T09:48:30;3.10;;;2.40;;
16826;SDS011;8530;49.540;8.576;2023-04-24T09:50:57;4.90;;;2.73;;
16826;SDS011;8530;49.540;8.576;2023-04-24T09:53:25;3.57;;;2.50;;
16826;SDS011;8530;49.540;8.576;2023-04-24T09:55:54;3.93;;;2.63;;
16826;SDS011;8530;49.540;8.576;2023-04-24T09:58:24;9.10;;;2.60;;
16826;SDS011;8530;49.540;8.576;2023-04-24T10:00:56;2.90;;;2.70;;
16826;SDS011;8530;49.540;8.576;2023-04-24T10:03:23;5.33;;;3.17;;
16826;SDS011;8530;49.540;8.576;2023-04-24T10:05:52;3.43;;;3.13;;
16826;SDS011;8530;49.540;8.576;2023-04-24T10:08:20;5.10;;;3.03;;
16826;SDS011;8530;49.540;8.576;2023-04-24T10:10:47;5.70;;;3.37;;
16826;SDS011;8530;49.540;8.576;2023-04-24T10:13:15;6.27;;;3.70;;
16826;SDS011;8530;49.540;8.576;2023-04-24T10:15:42;4.00;;;3.10;;
16826;SDS011;8530;49.540;8.576;2023-04-24T10:18:09;4.43;;;3.20;;
16826;SDS011;8530;49.540;8.576;2023-04-24T10:20:37;3.80;;;2.47;;
16826;SDS011;8530;49.540;8.576;2023-04-24T10:23:05;3.90;;;2.53;;
16826;SDS011;8530;49.540;8.576;2023-04-24T10:25:32;2.80;;;2.60;;
16826;SDS011;8530;49.540;8.576;2023-04-24T10:28:00;2.30;;;2.13;;
16826;SDS011;8530;49.540;8.576;2023-04-24T10:30:30;3.37;;;2.60;;
16826;SDS011;8530;49.540;8.576;2023-04-24T10:33:00;3.10;;;2.47;;
16826;SDS011;8530;49.540;8.576;2023-04-24T10:35:27;6.23;;;2.77;;
16826;SDS011;8530;49.540;8.576;2023-04-24T10:37:57;3.00;;;2.30;;
16826;SDS011;8530;49.540;8.576;2023-04-24T10:40:26;2.27;;;2.07;;
16826;SDS011;8530;49.540;8.576;2023-04-24T10:42:55;3.37;;;2.50;;
16826;SDS011;8530;49.540;8.576;2023-04-24T10:45:23;3.33;;;2.60;;
16826;SDS011;8530;49.540;8.576;2023-04-24T10:47:52;2.90;;;2.50;;
16826;SDS011;8530;49.540;8.576;2023-04-24T10:50:22;2.70;;;2.37;;
16826;SDS011;8530;49.540;8.576;2023-04-24T10:52:49;2.33;;;2.13;;
16826;SDS011;8530;49.540;8.576;2023-04-24T10:55:31;3.43;;;2.73;;
16826;SDS011;8530;49.540;8.576;2023-04-24T10:58:06;3.30;;;2.60;;
16826;SDS011;8530;49.540;8.576;2023-04-24T11:00:34;4.30;;;2.60;;
16826;SDS011;8530;49.540;8.576;2023-04-24T11:03:05;3.50;;;2.33;;
16826;SDS011;8530;49.540;8.576;2023-04-24T11:05:52;4.97;;;2.70;;
16826;SDS011;8530;49.540;8.576;2023-04-24T11:08:24;3.33;;;2.90;;
16826;SDS011;8530;49.540;8.576;2023-04-24T11:10:56;3.10;;;2.80;;
16826;SDS011;8530;49.540;8.576;2023-04-24T11:13:24;7.90;;;3.10;;
16826;SDS011;8530;49.540;8.576;2023-04-24T11:18:42;2.87;;;2.57;;
16826;SDS011;8530;49.540;8.576;2023-04-24T11:21:16;4.23;;;3.07;;
16826;SDS011;8530;49.540;8.576;2023-04-24T11:23:43;4.00;;;3.50;;
16826;SDS011;8530;49.540;8.576;2023-04-24T11:26:11;3.83;;;3.27;;
16826;SDS011;8530;49.540;8.576;2023-04-24T11:28:43;3.30;;;3.00;;
16826;SDS011;8530;49.540;8.576;2023-04-24T11:34:06;5.23;;;2.57;;
16826;SDS011;8530;49.540;8.576;2023-04-24T11:36:38;4.20;;;3.30;;
16826;SDS011;8530;49.540;8.576;2023-04-24T11:39:05;4.93;;;3.17;;
16826;SDS011;8530;49.540;8.576;2023-04-24T11:41:32;3.30;;;3.00;;
16826;SDS011;8530;49.540;8.576;2023-04-24T11:44:00;3.80;;;3.10;;
16826;SDS011;8530;49.540;8.576;2023-04-24T11:46:28;3.50;;;3.17;;
16826;SDS011;8530;49.540;8.576;2023-04-24T11:48:57;4.43;;;3.73;;
16826;SDS011;8530;49.540;8.576;2023-04-24T11:51:26;3.90;;;3.00;;
16826;SDS011;8530;49.540;8.576;2023-04-24T11:53:53;6.00;;;4.27;;
16826;SDS011;8530;49.540;8.576;2023-04-24T11:56:21;3.20;;;2.90;;
16826;SDS011;8530;49.540;8.576;2023-04-24T11:58:48;5.07;;;3.80;;
16826;SDS011;8530;49.540;8.576;2023-04-24T12:01:14;5.43;;;4.20;;
16826;SDS011;8530;49.540;8.576;2023-04-24T12:03:41;3.80;;;3.33;;
16826;SDS011;8530;49.540;8.576;2023-04-24T12:06:13;4.30;;;3.50;;
16826;SDS011;8530;49.540;8.576;2023-04-24T12:08:41;3.70;;;3.40;;
16826;SDS011;8530;49.540;8.576;2023-04-24T12:11:07;3.77;;;3.47;;
16826;SDS011;8530;49.540;8.576;2023-04-24T12:13:34;4.37;;;3.40;;
16826;SDS011;8530;49.540;8.576;2023-04-24T12:16:02;7.97;;;3.47;;
16826;SDS011;8530;49.540;8.576;2023-04-24T12:18:30;10.77;;;3.70;;
16826;SDS011;8530;49.540;8.576;2023-04-24T12:23:44;4.87;;;3.37;;
16826;SDS011;8530;49.540;8.576;2023-04-24T12:26:11;6.80;;;3.03;;
16826;SDS011;8530;49.540;8.576;2023-04-24T12:28:38;5.23;;;3.73;;
16826;SDS011;8530;49.540;8.576;2023-04-24T12:31:05;4.03;;;3.27;;
16826;SDS011;8530;49.540;8.576;2023-04-24T12:33:33;8.20;;;2.83;;
16826;SDS011;8530;49.540;8.576;2023-04-24T12:36:00;4.03;;;3.30;;
16826;SDS011;8530;49.540;8.576;2023-04-24T12:38:28;5.77;;;3.00;;
16826;SDS011;8530;49.540;8.576;2023-04-24T12:41:03;3.87;;;3.50;;
16826;SDS011;8530;49.540;8.576;2023-04-24T12:43:30;3.73;;;3.43;;
16826;SDS011;8530;49.540;8.576;2023-04-24T12:45:57;3.83;;;3.37;;
16826;SDS011;8530;49.540;8.576;2023-04-24T12:48:24;4.20;;;3.80;;
16826;SDS011;8530;49.540;8.576;2023-04-24T12:50:51;4.43;;;3.90;;
16826;SDS011;8530;49.540;8.576;2023-04-24T12:53:18;7.50;;;5.20;;
16826;SDS011;8530;49.540;8.576;2023-04-24T12:55:45;7.60;;;5.27;;
16826;SDS011;8530;49.540;8.576;2023-04-24T12:58:18;8.47;;;3.80;;
16826;SDS011;8530;49.540;8.576;2023-04-24T13:00:45;8.23;;;4.00;;
16826;SDS011;8530;49.540;8.576;2023-04-24T13:03:12;7.23;;;4.20;;
16826;SDS011;8530;49.540;8.576;2023-04-24T13:05:39;6.70;;;4.13;;
16826;SDS011;8530;49.540;8.576;2023-04-24T13:08:06;5.13;;;3.60;;
16826;SDS011;8530;49.540;8.576;2023-04-24T13:10:33;5.73;;;3.67;;
16826;SDS011;8530;49.540;8.576;2023-04-24T13:13:00;4.83;;;3.13;;
16826;SDS011;8530;49.540;8.576;2023-04-24T13:15:28;5.83;;;3.30;;
16826;SDS011;8530;49.540;8.576;2023-04-24T13:17:55;9.43;;;4.10;;
16826;SDS011;8530;49.540;8.576;2023-04-24T13:20:22;10.33;;;3.70;;
16826;SDS011;8530;49.540;8.576;2023-04-24T13:22:48;5.10;;;4.40;;
16826;SDS011;8530;49.540;8.576;2023-04-24T13:25:15;3.77;;;3.00;;
16826;SDS011;8530;49.540;8.576;2023-04-24T13:27:42;5.33;;;3.50;;
16826;SDS011;8530;49.540;8.576;2023-04-24T13:30:10;4.30;;;3.50;;
16826;SDS011;8530;49.540;8.576;2023-04-24T13:32:38;4.70;;;3.50;;
16826;SDS011;8530;49.540;8.576;2023-04-24T13:35:05;7.23;;;3.33;;
16826;SDS011;8530;49.540;8.576;2023-04-24T13:37:32;4.50;;;3.43;;
16826;SDS011;8530;49.540;8.576;2023-04-24T13:39:59;7.90;;;4.10;;
16826;SDS011;8530;49.540;8.576;2023-04-24T13:42:26;6.93;;;3.87;;
16826;SDS011;8530;49.540;8.576;2023-04-24T13:44:52;4.13;;;3.73;;
16826;SDS011;8530;49.540;8.576;2023-04-24T13:47:19;4.97;;;3.40;;
16826;SDS011;8530;49.540;8.576;2023-04-24T13:49:48;4.77;;;3.67;;
16826;SDS011;8530;49.540;8.576;2023-04-24T13:52:14;5.70;;;3.97;;
16826;SDS011;8530;49.540;8.576;2023-04-24T13:54:41;7.30;;;4.00;;
16826;SDS011;8530;49.540;8.576;2023-04-24T13:57:08;5.60;;;4.10;;
16826;SDS011;8530;49.540;8.576;2023-04-24T13:59:35;4.90;;;3.80;;
16826;SDS011;8530;49.540;8.576;2023-04-24T14:02:02;6.97;;;4.17;;
16826;SDS011;8530;49.540;8.576;2023-04-24T14:04:28;5.47;;;3.47;;
16826;SDS011;8530;49.540;8.576;2023-04-24T14:06:56;9.67;;;3.83;;
16826;SDS011;8530;49.540;8.576;2023-04-24T14:09:23;4.73;;;3.30;;
16826;SDS011;8530;49.540;8.576;2023-04-24T14:11:51;3.70;;;2.70;;
16826;SDS011;8530;49.540;8.576;2023-04-24T14:14:17;7.13;;;3.30;;
16826;SDS011;8530;49.540;8.576;2023-04-24T14:16:44;4.10;;;3.17;;
16826;SDS011;8530;49.540;8.576;2023-04-24T14:19:11;4.30;;;3.40;;
16826;SDS011;8530;49.540;8.576;2023-04-24T14:21:38;5.03;;;3.17;;
16826;SDS011;8530;49.540;8.576;2023-04-24T14:24:06;4.97;;;3.60;;
16826;SDS011;8530;49.540;8.576;2023-04-24T14:26:34;4.27;;;3.90;;
16826;SDS011;8530;49.540;8.576;2023-04-24T14:29:00;4.00;;;3.60;;
16826;SDS011;8530;49.540;8.576;2023-04-24T14:31:27;4.10;;;3.07;;
16826;SDS011;8530;49.540;8.576;2023-04-24T14:33:54;5.17;;;3.50;;
16826;SDS011;8530;49.540;8.576;2023-04-24T14:36:21;6.10;;;3.40;;
16826;SDS011;8530;49.540;8.576;2023-04-24T14:38:47;5.83;;;4.43;;
16826;SDS011;8530;49.540;8.576;2023-04-24T14:41:16;7.73;;;4.90;;
16826;SDS011;8530;49.540;8.576;2023-04-24T14:43:43;7.87;;;4.23;;
16826;SDS011;8530;49.540;8.576;2023-04-24T14:46:09;5.30;;;4.30;;
16826;SDS011;8530;49.540;8.576;2023-04-24T14:48:36;5.97;;;4.03;;
16826;SDS011;8530;49.540;8.576;2023-04-24T14:51:03;8.23;;;4.80;;
16826;SDS011;8530;49.540;8.576;2023-04-24T14:53:30;5.47;;;3.67;;
16826;SDS011;8530;49.540;8.576;2023-04-24T14:55:56;5.33;;;3.07;;
16826;SDS011;8530;49.540;8.576;2023-04-24T14:58:24;4.00;;;3.03;;
16826;SDS011;8530;49.540;8.576;2023-04-24T15:00:51;7.53;;;3.43;;
16826;SDS011;8530;49.540;8.576;2023-04-24T15:03:19;6.43;;;3.03;;
16826;SDS011;8530;49.540;8.576;2023-04-24T15:05:46;4.20;;;3.00;;
16826;SDS011;8530;49.540;8.576;2023-04-24T15:08:13;5.40;;;3.10;;
16826;SDS011;8530;49.540;8.576;2023-04-24T15:10:41;4.83;;;3.60;;
16826;SDS011;8530;49.540;8.576;2023-04-24T15:13:08;5.50;;;3.40;;